Time;durP1;ratioP1;P1;durP2;ratioP2;P2;SDS_P1;SDS_P2;PMS_P1;PMS_P2;Temp;Humidity;BMP_temperature;BMP_pressure;BME280_temperature;BME280_humidity;BME280_pressure;Samples;Min_cycle;Max_cycle;Signal;HPM_P1;HPM_P2
2023/03/28 00:02:19;;;;;;;;;;;9.60;77.60;;;8.48;71.61;94674.31;5031610;28;20119;-87
2023/03/28 00:04:48;;;;;;;;;;;9.60;77.50;;;8.47;71.54;94678.09;5031292;28;19922;-87
2023/03/28 00:07:16;;;;;;;;;;;9.60;77.50;;;8.46;71.74;94693.66;5015272;28;19927;-87
2023/03/28 00:09:47;;;;;;;;;;;9.50;77.60;;;8.44;71.76;94693.94;5047927;28;19921;-87
2023/03/28 00:12:15;;;;;;;;;;;9.50;77.60;;;8.46;71.82;94715.47;5032659;28;19921;-88
2023/03/28 00:14:45;;;;;;;;;;;9.50;77.60;;;8.45;71.86;94724.78;5014735;28;19920;-87
2023/03/28 00:17:13;;;;;;;;;;;9.50;77.50;;;8.42;71.75;94726.16;5031513;28;19921;-87
2023/03/28 00:19:41;;;;;;;;;;;9.50;77.30;;;8.44;71.49;94728.59;5014697;28;19921;-87
2023/03/28 00:22:10;;;;;;;;;;;9.50;77.30;;;8.41;71.38;94727.25;5011577;28;19928;-87
2023/03/28 00:24:38;;;;;;;;;;;9.50;77.20;;;8.41;71.80;94743.63;5011365;28;19935;-87
2023/03/28 00:27:07;;;;;;;;;;;9.50;78.20;;;8.40;71.67;94738.47;5011211;28;19922;-87
2023/03/28 00:29:35;;;;;;;;;;;9.50;77.40;;;8.40;71.92;94738.47;5011154;28;19936;-87
2023/03/28 00:32:04;;;;;;;;;;;9.50;77.80;;;8.39;71.48;94747.75;5027882;28;19921;-87
2023/03/28 00:34:32;;;;;;;;;;;9.50;77.30;;;8.40;71.58;94749.38;5010716;28;19944;-87
2023/03/28 00:37:01;;;;;;;;;;;9.50;77.30;;;8.38;71.51;94752.41;5011261;28;20128;-87
2023/03/28 00:39:30;;;;;;;;;;;9.50;77.60;;;8.37;71.56;94752.69;5011109;28;19928;-87
2023/03/28 00:42:00;;;;;;;;;;;9.50;77.50;;;8.37;71.64;94747.22;5011339;28;19921;-87
2023/03/28 00:44:46;;;;;;;;;;;9.40;77.40;;;8.36;71.43;94753.78;5011337;28;19943;-87
2023/03/28 00:47:24;;;;;;;;;;;9.40;77.30;;;8.36;71.64;94770.97;5011359;28;19921;-86
2023/03/28 00:49:53;;;;;;;;;;;9.40;77.30;;;8.36;71.57;94770.13;5011279;28;19976;-87
2023/03/28 00:52:22;;;;;;;;;;;9.40;77.30;;;8.36;71.64;94775.59;5011182;28;19921;-87
2023/03/28 00:54:51;;;;;;;;;;;9.40;77.20;;;8.35;71.66;94784.88;5010957;28;19922;-88
2023/03/28 00:57:19;;;;;;;;;;;9.40;77.30;;;8.35;71.49;94779.41;5011175;28;20212;-88
2023/03/28 00:59:50;;;;;;;;;;;9.40;77.30;;;8.33;71.45;94787.91;5010997;28;19928;-87
2023/03/28 01:02:18;;;;;;;;;;;9.40;77.20;;;8.34;71.70;94794.16;5011017;28;19928;-87
2023/03/28 01:04:48;;;;;;;;;;;9.40;77.20;;;8.34;71.50;94805.06;5010681;28;19921;-88
2023/03/28 01:07:22;;;;;;;;;;;9.40;77.30;;;8.33;71.47;94803.44;5010822;28;19921;-88
2023/03/28 01:09:50;;;;;;;;;;;9.40;77.20;;;8.33;71.57;94815.16;5011182;28;19943;-87
2023/03/28 01:12:18;;;;;;;;;;;9.40;77.30;;;8.32;71.29;94810.81;5011094;28;19928;-87
2023/03/28 01:14:47;;;;;;;;;;;9.40;77.20;;;8.33;71.51;94808.88;5010600;28;19928;-87
2023/03/28 01:17:16;;;;;;;;;;;9.40;77.20;;;8.32;71.39;94808.09;5011057;28;19921;-88
2023/03/28 01:19:57;;;;;;;;;;;9.40;77.20;;;8.32;71.01;94810.03;5010474;28;20112;-87
2023/03/28 01:22:55;;;;;;;;;;;9.40;77.20;;;8.33;71.16;94811.63;5010986;28;19928;-87
2023/03/28 01:25:41;;;;;;;;;;;9.40;77.10;;;8.33;71.57;94819.78;5010612;28;19921;-87
2023/03/28 01:28:12;;;;;;;;;;;9.40;77.10;;;8.32;71.59;94815.47;5002656;28;19921;-87
2023/03/28 01:30:59;;;;;;;;;;;9.40;77.00;;;8.31;71.57;94827.47;5014073;28;19921;-88
2023/03/28 01:34:27;;;;;;;;;;;9.40;77.10;;;8.29;71.44;94836.75;5030031;28;19928;-88
2023/03/28 01:37:22;;;;;;;;;;;9.40;77.20;;;8.29;71.44;94836.75;5014136;28;19921;-87
2023/03/28 01:40:15;;;;;;;;;;;9.40;77.30;;;8.29;70.90;94838.66;5023772;28;19921;-87
2023/03/28 01:42:51;;;;;;;;;;;9.40;77.00;;;8.28;71.55;94835.13;5030074;28;20094;-88
2023/03/28 01:45:23;;;;;;;;;;;9.40;77.10;;;8.27;71.69;94838.97;5010333;28;19927;-88
2023/03/28 01:47:53;;;;;;;;;;;9.40;77.20;;;8.28;71.05;94851.50;5015332;28;20115;-88
2023/03/28 01:50:24;;;;;;;;;;;9.40;77.10;;;8.26;71.08;94853.69;5016864;28;19921;-87
2023/03/28 01:52:56;;;;;;;;;;;9.30;77.10;;;8.26;71.15;94845.50;5017154;28;20112;-88
2023/03/28 01:55:26;;;;;;;;;;;9.30;77.00;;;8.27;71.05;94863.50;5050107;28;19927;-87
2023/03/28 01:57:57;;;;;;;;;;;9.30;77.10;;;8.27;71.03;94866.22;5016979;28;19927;-87
2023/03/28 02:00:28;;;;;;;;;;;9.30;77.10;;;8.26;71.22;94874.69;5017200;28;19921;-87
2023/03/28 02:03:13;;;;;;;;;;;9.30;77.20;;;8.26;71.25;94880.94;5033398;28;20209;-88
2023/03/28 02:05:53;;;;;;;;;;;9.30;77.00;;;8.25;71.17;94894.88;5016910;28;19928;-88
2023/03/28 02:08:24;;;;;;;;;;;9.30;77.20;;;8.24;71.56;94890.53;5033343;28;19943;-88
2023/03/28 02:11:10;;;;;;;;;;;9.30;77.20;;;8.25;71.12;94900.34;5016829;28;19921;-88
2023/03/28 02:13:49;;;;;;;;;;;9.30;77.00;;;8.24;71.46;94904.16;5017001;28;20212;-87
2023/03/28 02:16:37;;;;;;;;;;;9.30;77.00;;;8.24;71.19;94901.44;5033083;28;19922;-87
2023/03/28 02:19:32;;;;;;;;;;;9.30;77.10;;;8.23;71.50;94903.34;5033894;28;19925;-88
2023/03/28 02:22:23;;;;;;;;;;;9.30;77.20;;;8.22;71.03;94901.69;5032880;28;19927;-88
2023/03/28 02:25:11;;;;;;;;;;;9.30;77.20;;;8.22;71.23;94909.88;5016446;28;19922;-87
2023/03/28 02:27:39;;;;;;;;;;;9.30;77.10;;;8.23;71.22;94907.97;5032840;28;19927;-87
2023/03/28 02:30:22;;;;;;;;;;;9.30;77.20;;;8.21;71.58;94908.25;5049387;28;19927;-87
2023/03/28 02:32:51;;;;;;;;;;;9.30;77.10;;;8.21;71.42;94904.72;5016286;28;20238;-86
2023/03/28 02:35:22;;;;;;;;;;;9.30;77.10;;;8.21;71.07;94910.19;5016454;28;19929;-87
2023/03/28 02:37:54;;;;;;;;;;;9.30;77.10;;;8.19;70.85;94915.94;5032691;28;20093;-87
2023/03/28 02:40:31;;;;;;;;;;;9.30;77.10;;;8.18;71.29;94917.03;5033108;28;19927;-87
2023/03/28 02:43:11;;;;;;;;;;;9.30;77.20;;;8.19;71.53;94917.84;5032569;28;19921;-87
2023/03/28 02:46:05;;;;;;;;;;;9.30;77.20;;;8.18;70.94;94927.94;5032711;28;19927;-87
2023/03/28 02:48:40;;;;;;;;;;;9.30;77.20;;;8.18;71.32;94927.94;5032545;28;19928;-87
2023/03/28 02:51:13;;;;;;;;;;;9.30;77.20;;;8.18;71.08;94930.66;5032087;28;19921;-86
2023/03/28 02:53:45;;;;;;;;;;;9.30;77.20;;;8.16;71.18;94930.13;5048051;28;20209;-87
2023/03/28 02:56:18;;;;;;;;;;;9.30;77.10;;;8.16;71.53;94935.59;5032212;28;19921;-86
2023/03/28 02:59:10;;;;;;;;;;;9.30;77.30;;;8.17;71.36;94942.66;5029509;28;20094;-87
2023/03/28 03:01:39;;;;;;;;;;;9.30;77.10;;;8.14;71.11;94937.78;5032447;28;19927;-87
2023/03/28 03:04:07;;;;;;;;;;;9.30;77.00;;;8.15;70.89;94942.13;5032365;28;20208;-87
2023/03/28 03:06:35;;;;;;;;;;;9.20;77.00;;;8.14;71.46;94940.50;5016031;28;19928;-87
2023/03/28 03:09:04;;;;;;;;;;;9.20;76.90;;;8.14;71.52;94948.69;5032018;28;19922;-86
2023/03/28 03:11:34;;;;;;;;;;;9.20;76.90;;;8.14;71.26;94951.41;5015860;28;19921;-87
2023/03/28 03:14:02;;;;;;;;;;;9.20;76.90;;;8.12;70.99;94948.97;5015846;28;19921;-87
2023/03/28 03:16:31;;;;;;;;;;;9.20;77.00;;;8.13;70.85;94955.22;5032003;28;19921;-87
2023/03/28 03:18:59;;;;;;;;;;;9.20;76.90;;;8.12;70.98;94968.06;5015620;28;19921;-87
2023/03/28 03:21:28;;;;;;;;;;;9.20;76.80;;;8.11;71.19;94971.88;5048790;28;19921;-85
2023/03/28 03:23:56;;;;;;;;;;;9.20;76.90;;;8.11;70.76;94960.16;5015598;28;19921;-87
2023/03/28 03:26:24;;;;;;;;;;;9.20;76.80;;;8.10;70.97;94972.97;5009161;28;19922;-87
2023/03/28 03:29:02;;;;;;;;;;;9.20;76.80;;;8.09;71.41;94970.50;5008833;28;19932;-87
2023/03/28 03:31:32;;;;;;;;;;;9.20;76.80;;;8.09;70.77;94984.16;5025546;28;19921;-87
2023/03/28 03:34:01;;;;;;;;;;;9.20;76.80;;;8.08;71.15;94983.34;4992432;28;19921;-87
2023/03/28 03:36:33;;;;;;;;;;;9.20;76.90;;;8.08;71.03;94986.06;4992650;28;19922;-87
2023/03/28 03:39:02;;;;;;;;;;;9.20;76.80;;;8.09;71.26;94992.31;4992361;28;19922;-87
2023/03/28 03:41:30;;;;;;;;;;;9.20;77.00;;;8.08;70.92;94993.41;4992638;28;19921;-87
2023/03/28 03:43:58;;;;;;;;;;;9.20;76.90;;;8.07;71.07;94998.06;4992466;28;19928;-87
2023/03/28 03:46:28;;;;;;;;;;;9.20;77.00;;;8.07;71.07;95011.69;4992440;28;19930;-87
2023/03/28 03:48:56;;;;;;;;;;;9.20;76.90;;;8.07;71.28;95019.03;4976446;28;19921;-87
2023/03/28 03:51:24;;;;;;;;;;;9.20;76.80;;;8.06;70.58;95015.53;4992355;28;19928;-87
2023/03/28 03:53:57;;;;;;;;;;;9.20;76.80;;;8.06;70.77;95022.91;4992309;28;19921;-86
2023/03/28 03:56:33;;;;;;;;;;;9.20;76.70;;;8.06;71.10;95033.78;4992341;28;19922;-87
2023/03/28 03:59:02;;;;;;;;;;;9.10;76.80;;;8.04;70.67;95036.78;5008296;28;20237;-88
2023/03/28 04:01:38;;;;;;;;;;;9.10;76.80;;;8.04;71.28;95047.69;5008653;28;19922;-87
2023/03/28 04:04:22;;;;;;;;;;;9.10;76.80;;;8.03;70.91;95035.16;4992317;28;19921;-87
2023/03/28 04:07:11;;;;;;;;;;;9.10;76.70;;;8.03;70.60;95045.25;4992150;28;19928;-88
2023/03/28 04:09:39;;;;;;;;;;;9.10;76.70;;;8.01;70.69;95045.53;4991309;28;19929;-88
2023/03/28 04:12:07;;;;;;;;;;;9.10;76.90;;;7.99;71.10;95054.00;4992141;28;20121;-87
2023/03/28 04:14:46;;;;;;;;;;;9.10;76.70;;;7.99;70.68;95056.72;5008384;28;19928;-88
2023/03/28 04:17:33;;;;;;;;;;;9.10;76.60;;;8.00;70.64;95052.09;4992279;28;20113;-87
2023/03/28 04:20:12;;;;;;;;;;;9.10;76.50;;;7.99;70.44;95073.06;4976031;28;19922;-87
2023/03/28 04:23:10;;;;;;;;;;;9.10;76.50;;;7.99;70.85;95072.28;4985808;28;19922;-87
2023/03/28 04:25:41;;;;;;;;;;;9.10;76.60;;;7.98;70.82;95087.78;4992204;28;19921;-86
2023/03/28 04:28:27;;;;;;;;;;;9.10;76.50;;;7.98;70.52;95098.69;4975637;28;19922;-87
2023/03/28 04:30:58;;;;;;;;;;;9.10;76.60;;;7.97;70.79;95088.09;4991893;28;19928;-86
2023/03/28 04:33:29;;;;;;;;;;;9.10;76.70;;;7.95;70.81;95101.97;4991651;28;19922;-86
2023/03/28 04:36:00;;;;;;;;;;;9.10;76.70;;;7.96;70.39;95106.31;4991639;28;19937;-86
2023/03/28 04:38:34;;;;;;;;;;;9.10;76.60;;;7.94;70.72;95113.97;4975364;28;19922;-86
2023/03/28 04:41:16;;;;;;;;;;;9.10;76.40;;;7.93;70.42;95115.09;4975677;28;19922;-86
2023/03/28 04:44:05;;;;;;;;;;;9.00;76.60;;;7.95;71.08;95126.50;5007480;28;19928;-86
2023/03/28 04:46:39;;;;;;;;;;;9.00;76.50;;;7.94;70.83;95124.88;4991511;28;19929;-86
2023/03/28 04:49:14;;;;;;;;;;;9.00;76.50;;;7.93;71.26;95133.34;4991562;28;19928;-86
2023/03/28 04:51:42;;;;;;;;;;;9.00;76.70;;;7.92;70.77;95132.53;4991479;28;19921;-86
2023/03/28 04:54:10;;;;;;;;;;;9.00;76.40;;;7.91;71.16;95135.53;4991418;28;19943;-87
2023/03/28 04:57:05;;;;;;;;;;;9.00;76.70;;;7.90;70.87;95132.00;4992165;28;19928;-86
2023/03/28 04:59:44;;;;;;;;;;;9.00;76.60;;;7.91;70.69;95157.31;4991413;28;19928;-86
2023/03/28 05:02:20;;;;;;;;;;;9.00;76.40;;;7.90;70.76;95156.50;4975193;28;20216;-86
2023/03/28 05:05:09;;;;;;;;;;;9.00;76.20;;;7.90;70.52;95166.59;4975268;28;20117;-86
2023/03/28 05:07:37;;;;;;;;;;;9.00;76.30;;;7.88;70.73;95175.06;4991266;28;19922;-86
2023/03/28 05:10:07;;;;;;;;;;;9.00;76.60;;;7.89;70.43;95181.31;4991204;28;19922;-87
2023/03/28 05:12:39;;;;;;;;;;;9.00;76.40;;;7.87;70.40;95181.59;4991156;28;19944;-86
2023/03/28 05:15:07;;;;;;;;;;;9.00;76.20;;;7.89;70.93;95186.75;4975000;28;19922;-86
2023/03/28 05:17:49;;;;;;;;;;;9.00;76.30;;;7.85;70.34;95193.88;4974808;28;19922;-87
2023/03/28 05:20:32;;;;;;;;;;;9.00;76.20;;;7.86;70.33;95199.03;4993204;28;20095;-86
2023/03/28 05:23:00;;;;;;;;;;;9.00;76.20;;;7.84;70.42;95195.75;5014292;28;19932;-87
2023/03/28 05:25:29;;;;;;;;;;;9.00;76.20;;;7.85;70.36;95204.78;5017185;28;19928;-86
2023/03/28 05:27:57;;;;;;;;;;;9.00;76.30;;;7.84;70.44;95209.38;5017184;28;19928;-86
2023/03/28 05:30:26;;;;;;;;;;;9.00;76.10;;;7.83;70.32;95210.47;5033936;28;20209;-87
2023/03/28 05:32:57;;;;;;;;;;;9.00;76.20;;;7.85;70.20;95218.41;5033462;28;19921;-86
2023/03/28 05:35:25;;;;;;;;;;;8.90;76.20;;;7.82;70.71;95211.56;5033389;28;19921;-87
2023/03/28 05:37:54;;;;;;;;;;;8.90;76.10;;;7.83;70.39;95224.09;5017080;28;19921;-86
2023/03/28 05:40:23;;;;;;;;;;;8.90;76.10;;;7.83;70.45;95221.38;5017194;28;19922;-86
2023/03/28 05:42:51;;;;;;;;;;;8.90;76.40;;;7.83;70.55;95232.28;5013502;28;19922;-86
2023/03/28 05:45:21;;;;;;;;;;;8.90;76.40;;;7.81;70.27;95229.03;5013761;28;19921;-87
2023/03/28 05:48:09;;;;;;;;;;;8.90;76.50;;;7.82;70.82;95241.53;5013513;28;19944;-87
2023/03/28 05:50:38;;;;;;;;;;;8.90;76.40;;;7.81;70.00;95239.94;5029466;28;19928;-86
2023/03/28 05:53:08;;;;;;;;;;;8.90;76.00;;;7.81;70.67;95245.38;5009104;28;20243;-85
2023/03/28 05:55:36;;;;;;;;;;;8.90;76.10;;;7.80;70.52;95244.56;4977707;28;19922;-86
2023/03/28 05:58:05;;;;;;;;;;;8.90;75.90;;;7.79;70.23;95248.38;4976805;28;20120;-87
2023/03/28 06:00:43;;;;;;;;;;;8.90;75.90;;;7.79;69.84;95259.28;4977955;28;19981;-86
2023/03/28 06:03:11;;;;;;;;;;;8.90;76.00;;;7.79;69.98;95263.91;4993158;28;20102;-86
2023/03/28 06:05:40;;;;;;;;;;;8.90;75.90;;;7.80;70.30;95265.56;4977841;28;19986;-87
2023/03/28 06:08:19;;;;;;;;;;;8.90;76.00;;;7.79;70.12;95269.38;4977632;28;19922;-87
2023/03/28 06:10:47;;;;;;;;;;;8.90;75.90;;;7.79;69.96;95267.44;4977688;28;19928;-86
2023/03/28 06:13:22;;;;;;;;;;;8.90;75.90;;;7.80;69.84;95281.91;4977411;28;19922;-87
2023/03/28 06:15:50;;;;;;;;;;;8.90;75.70;;;7.78;69.93;95279.44;4977593;28;19928;-87
2023/03/28 06:18:20;;;;;;;;;;;8.90;75.90;;;7.79;69.91;95291.16;4977467;28;19922;-86
2023/03/28 06:20:50;;;;;;;;;;;8.90;75.90;;;7.79;70.73;95296.59;4977590;28;19921;-86
2023/03/28 06:23:21;;;;;;;;;;;8.90;76.10;;;7.79;70.31;95296.59;4977589;28;19928;-87
2023/03/28 06:25:49;;;;;;;;;;;8.90;75.70;;;7.79;69.95;95308.31;4977275;28;19928;-87
2023/03/28 06:28:19;;;;;;;;;;;8.90;75.60;;;7.78;69.91;95305.88;4977762;28;19928;-87
2023/03/28 06:31:20;;;;;;;;;;;8.90;75.60;;;7.79;69.14;95326.59;4981928;28;19928;-86
2023/03/28 06:33:49;;;;;;;;;;;8.90;75.30;;;7.78;69.89;95323.03;4977389;28;20120;-87
2023/03/28 06:36:20;;;;;;;;;;;8.90;75.20;;;7.78;69.88;95333.13;4977412;28;19922;-86
2023/03/28 06:38:52;;;;;;;;;;;8.90;75.40;;;7.79;69.84;95335.56;4977215;28;19922;-88
2023/03/28 06:41:20;;;;;;;;;;;8.90;75.60;;;7.79;69.66;95332.03;4977434;28;19922;-87
2023/03/28 06:43:48;;;;;;;;;;;8.90;75.40;;;7.79;69.29;95354.63;4977385;28;20205;-88
2023/03/28 06:46:45;;;;;;;;;;;8.90;75.00;;;7.79;69.91;95351.09;4992980;28;19922;-87
2023/03/28 06:49:14;;;;;;;;;;;8.90;75.30;;;7.79;69.75;95362.81;4977106;28;19921;-88
2023/03/28 06:52:22;;;;;;;;;;;8.90;75.30;;;7.80;69.47;95377.25;4992929;28;19922;-88
2023/03/28 06:54:52;;;;;;;;;;;8.90;75.10;;;7.79;69.77;95372.91;4977059;28;19921;-88
2023/03/28 06:57:21;;;;;;;;;;;8.90;75.20;;;7.77;69.33;95380.53;4977207;28;19922;-87
2023/03/28 06:59:53;;;;;;;;;;;8.90;75.00;;;7.78;69.54;95371.25;5015365;28;19935;-89
2023/03/28 07:02:28;;;;;;;;;;;8.90;74.90;;;7.77;69.58;95375.06;5016217;28;19941;-88
2023/03/28 07:05:01;;;;;;;;;;;8.90;75.10;;;7.77;69.48;95394.94;5016121;28;19967;-88
2023/03/28 07:07:30;;;;;;;;;;;8.90;75.10;;;7.76;69.30;95396.03;5032322;28;19928;-88
2023/03/28 07:10:01;;;;;;;;;;;8.90;75.00;;;7.76;69.54;95389.78;5010737;28;20231;-88
2023/03/28 07:12:30;;;;;;;;;;;8.90;74.80;;;7.77;69.31;95394.16;5009572;28;19928;-88
2023/03/28 07:14:58;;;;;;;;;;;8.90;74.80;;;7.76;69.07;95395.22;4976802;28;19921;-89
2023/03/28 07:17:26;;;;;;;;;;;8.90;74.60;;;7.76;69.39;95409.66;4993281;28;19928;-89
2023/03/28 07:19:56;;;;;;;;;;;8.90;74.70;;;7.77;68.91;95407.78;4993125;28;20145;-89
2023/03/28 07:22:24;;;;;;;;;;;8.90;74.50;;;7.76;68.85;95406.94;4993220;28;20227;-89
2023/03/28 07:24:52;;;;;;;;;;;8.90;74.60;;;7.78;68.85;95420.31;4976669;28;19922;-90
2023/03/28 07:27:23;;;;;;;;;;;8.90;74.50;;;7.79;68.84;95427.41;4993069;28;19922;-89
2023/03/28 07:29:52;;;;;;;;;;;8.90;74.50;;;7.79;68.68;95427.41;4993278;28;19922;-89
2023/03/28 07:32:21;;;;;;;;;;;8.90;74.10;;;7.79;69.00;95432.84;4992760;28;19922;-89
2023/03/28 07:34:49;;;;;;;;;;;8.90;74.30;;;7.79;68.48;95432.84;5009036;28;19922;-90
2023/03/28 07:37:20;;;;;;;;;;;8.90;74.10;;;7.77;68.67;95440.47;4992938;28;19936;-90
2023/03/28 07:40:11;;;;;;;;;;;8.90;73.80;;;7.76;68.00;95447.81;5023993;28;20212;-89
2023/03/28 07:42:43;;;;;;;;;;;8.90;73.70;;;7.75;68.66;95454.34;5014978;28;19985;-89
2023/03/28 07:45:12;;;;;;;;;;;8.90;74.30;;;7.75;69.11;95450.81;5015141;28;19928;-89
2023/03/28 07:47:40;;;;;;;;;;;8.90;74.40;;;7.75;68.88;95453.53;5015394;28;19927;-89
2023/03/28 07:50:09;;;;;;;;;;;8.90;74.60;;;7.75;68.99;95458.97;5032098;28;19921;-89
2023/03/28 07:52:39;;;;;;;;;;;8.80;74.30;;;7.73;68.71;95461.16;5015693;28;19921;-88
2023/03/28 07:55:08;;;;;;;;;;;8.90;74.10;;;7.72;69.01;95470.41;5018203;28;19921;-88
2023/03/28 07:57:44;;;;;;;;;;;8.90;74.30;;;7.71;69.25;95471.50;5028622;28;19921;-88
2023/03/28 08:00:26;;;;;;;;;;;8.80;74.20;;;7.71;68.61;95463.31;5012060;28;19922;-88
2023/03/28 08:03:14;;;;;;;;;;;8.80;74.00;;;7.70;68.30;95464.41;5011873;28;19922;-88
2023/03/28 08:05:50;;;;;;;;;;;8.80;74.00;;;7.70;68.57;95478.03;5011923;28;19927;-88
2023/03/28 08:08:18;;;;;;;;;;;8.80;74.10;;;7.68;68.80;95486.50;5011815;28;19922;-88
2023/03/28 08:10:49;;;;;;;;;;;8.80;74.00;;;7.67;68.49;95488.41;4995577;28;19944;-88
2023/03/28 08:13:19;;;;;;;;;;;8.80;74.10;;;7.66;68.54;95481.31;4995627;28;19922;-88
2023/03/28 08:15:49;;;;;;;;;;;8.80;74.10;;;7.66;68.96;95492.22;4995576;28;19927;-87
2023/03/28 08:18:19;;;;;;;;;;;8.80;74.10;;;7.66;68.03;95496.84;5011636;28;20124;-88
2023/03/28 08:20:48;;;;;;;;;;;8.80;74.00;;;7.65;68.49;95496.03;5028197;28;19922;-87
2023/03/28 08:23:17;;;;;;;;;;;8.80;74.00;;;7.65;69.03;95493.31;5011608;28;19951;-88
2023/03/28 08:26:04;;;;;;;;;;;8.80;74.10;;;7.63;68.53;95495.47;5011554;28;19928;-88
2023/03/28 08:28:34;;;;;;;;;;;8.80;73.80;;;7.64;67.98;95507.19;5011318;28;19936;-87
2023/03/28 08:31:08;;;;;;;;;;;8.80;73.60;;;7.63;68.13;95513.72;5011434;28;19921;-87
2023/03/28 08:33:36;;;;;;;;;;;8.80;73.50;;;7.61;68.14;95519.44;5011577;28;19927;-88
2023/03/28 08:36:04;;;;;;;;;;;8.70;73.80;;;-151.14;100.00;62537.16;4995048;28;19921;-88
2023/03/28 08:38:32;;;;;;;;;;;8.80;74.10;;;-151.14;100.00;62537.16;5011354;28;20117;-88
2023/03/28 08:41:02;;;;;;;;;;;8.80;74.00;;;-151.14;100.00;62537.16;5027929;28;19921;-87
2023/03/28 08:43:52;;;;;;;;;;;8.70;74.10;;;-151.14;100.00;62537.16;5011118;28;20153;-88
2023/03/28 08:46:21;;;;;;;;;;;8.70;73.60;;;-151.14;100.00;62537.16;5011218;28;19922;-88
2023/03/28 08:48:50;;;;;;;;;;;8.70;73.60;;;-151.14;100.00;62537.16;5011076;28;20217;-88
2023/03/28 08:51:20;;;;;;;;;;;8.70;73.70;;;-151.14;100.00;62537.16;5011263;28;19928;-88
2023/03/28 08:53:51;;;;;;;;;;;8.70;73.80;;;-151.14;100.00;62537.16;5027482;28;19946;-88
2023/03/28 08:56:19;;;;;;;;;;;8.80;73.80;;;-151.14;100.00;62537.16;5010740;28;19922;-87
2023/03/28 08:58:53;;;;;;;;;;;8.70;73.50;;;-151.14;100.00;62537.16;5011038;28;19932;-88
2023/03/28 09:01:22;;;;;;;;;;;8.70;73.60;;;-151.14;100.00;62537.16;5014283;28;19921;-88
2023/03/28 09:03:50;;;;;;;;;;;8.70;73.80;;;-151.14;100.00;62537.16;5030479;28;19927;-88
2023/03/28 09:06:27;;;;;;;;;;;8.80;73.90;;;-151.14;100.00;62537.16;5030423;28;20120;-88
2023/03/28 09:09:03;;;;;;;;;;;8.70;73.60;;;-151.14;100.00;62537.16;5014211;28;20196;-87
2023/03/28 09:11:40;;;;;;;;;;;8.80;73.90;;;-151.14;100.00;62537.16;5014252;28;19921;-87
2023/03/28 09:14:17;;;;;;;;;;;8.80;73.40;;;-151.14;100.00;62537.16;5013970;28;19921;-88
2023/03/28 09:16:55;;;;;;;;;;;8.80;73.50;;;-151.14;100.00;62537.16;5013957;28;19921;-86
2023/03/28 09:19:37;;;;;;;;;;;8.80;72.90;;;-151.14;100.00;62537.16;5014080;28;19940;-87
2023/03/28 09:22:30;;;;;;;;;;;8.70;73.30;;;7.59;100.00;62537.16;4991127;28;20210;-87
2023/03/28 09:25:08;;;;;;;;;;;8.80;73.30;;;-151.14;100.00;62537.16;4974774;28;19928;-86
2023/03/28 09:27:46;;;;;;;;;;;8.80;72.70;;;-151.14;100.00;62537.16;4974911;28;19921;-86
2023/03/28 09:30:19;;;;;;;;;;;8.80;72.90;;;-151.14;100.00;62537.16;4975115;28;19928;-86
2023/03/28 09:32:49;;;;;;;;;;;8.80;73.30;;;-151.14;100.00;62537.16;4974869;28;19922;-86
2023/03/28 09:35:20;;;;;;;;;;;8.80;72.20;;;-151.14;100.00;62537.16;4974676;28;19928;-86
2023/03/28 09:37:50;;;;;;;;;;;8.80;72.40;;;-151.14;100.00;62537.16;4974784;28;19972;-86
2023/03/28 09:40:20;;;;;;;;;;;8.80;71.90;;;-151.14;100.00;62537.16;4991435;28;19921;-88
2023/03/28 09:43:13;;;;;;;;;;;8.80;71.80;;;-151.14;100.00;62537.16;4990607;28;20198;-87
2023/03/28 09:46:07;;;;;;;;;;;8.80;71.70;;;-151.14;100.00;62537.16;4993314;28;19921;-88
2023/03/28 09:49:10;;;;;;;;;;;8.80;71.70;;;-151.14;100.00;62537.16;4990433;28;19928;-88
2023/03/28 09:51:38;;;;;;;;;;;8.80;72.00;;;-151.14;100.00;62537.16;4974830;28;19929;-88
2023/03/28 09:54:07;;;;;;;;;;;8.80;71.80;;;-151.14;100.00;62537.16;4973930;28;19928;-87
2023/03/28 09:56:36;;;;;;;;;;;8.90;71.80;;;-151.14;100.00;62537.16;4992488;28;20124;-87
2023/03/28 09:59:24;;;;;;;;;;;8.90;71.80;;;-151.14;100.00;62537.16;4993419;28;19922;-87
2023/03/28 10:01:54;;;;;;;;;;;8.90;71.40;;;-151.14;100.00;62537.16;4993744;28;19997;-87
2023/03/28 10:04:41;;;;;;;;;;;8.90;71.30;;;-151.14;100.00;62537.16;4993637;28;19921;-87
2023/03/28 10:07:28;;;;;;;;;;;8.90;71.20;;;-151.14;100.00;62537.16;5011656;28;20231;-86
2023/03/28 10:10:08;;;;;;;;;;;8.90;72.60;;;-151.14;100.00;62537.16;4997000;28;19921;-87
2023/03/28 10:12:37;;;;;;;;;;;8.90;72.60;;;-151.14;100.00;62537.16;4997388;28;19929;-87
2023/03/28 10:15:13;;;;;;;;;;;8.90;72.70;;;-151.14;100.00;62537.16;5013559;28;19922;-86
2023/03/28 10:18:04;;;;;;;;;;;8.90;72.10;;;-151.14;100.00;62537.16;5003049;28;19921;-88
2023/03/28 10:20:38;;;;;;;;;;;8.90;72.50;;;-151.14;100.00;62537.16;4997149;28;19922;-86
2023/03/28 10:23:07;;;;;;;;;;;9.00;72.90;;;-151.14;100.00;62537.16;4996797;28;19922;-87
2023/03/28 10:25:38;;;;;;;;;;;9.00;73.10;;;-151.14;100.00;62537.16;4997100;28;19985;-87
2023/03/28 10:28:07;;;;;;;;;;;9.00;73.00;;;-151.14;100.00;62537.16;4997084;28;19921;-88
2023/03/28 10:30:36;;;;;;;;;;;9.00;73.10;;;-151.14;100.00;62537.16;4997153;28;19921;-87
2023/03/28 10:33:20;;;;;;;;;;;9.00;72.90;;;-151.14;100.00;62537.16;4997000;28;19921;-87
2023/03/28 10:36:11;;;;;;;;;;;9.00;72.30;;;-151.14;100.00;62537.16;5012772;28;19928;-87
2023/03/28 10:38:45;;;;;;;;;;;9.00;72.30;;;-151.14;100.00;62537.16;4996926;28;20209;-87
2023/03/28 10:41:34;;;;;;;;;;;9.00;71.90;;;-151.14;100.00;62537.16;5015591;28;19975;-87
2023/03/28 10:44:16;;;;;;;;;;;9.00;72.20;;;-151.14;100.00;62537.16;5033907;28;19921;-87
2023/03/28 10:46:49;;;;;;;;;;;9.00;71.90;;;-151.14;100.00;62537.16;5032699;28;19943;-87
2023/03/28 10:49:40;;;;;;;;;;;8.90;72.20;;;-151.14;100.00;62537.16;5016308;28;19925;-87
2023/03/28 10:52:14;;;;;;;;;;;8.90;72.50;;;-151.14;100.00;62537.16;5032751;28;20106;-87
2023/03/28 10:54:47;;;;;;;;;;;8.90;72.40;;;-151.14;100.00;62537.16;5016139;28;19921;-88
2023/03/28 10:57:27;;;;;;;;;;;8.90;72.20;;;-151.14;100.00;62537.16;5016117;28;19921;-88
2023/03/28 10:59:58;;;;;;;;;;;8.90;72.90;;;-151.14;100.00;62537.16;5016213;28;19937;-87
2023/03/28 11:02:38;;;;;;;;;;;8.90;73.20;;;-151.14;100.00;62537.16;5049097;28;19979;-87
2023/03/28 11:05:27;;;;;;;;;;;8.90;73.00;;;-151.14;100.00;62537.16;5032359;28;19921;-87
2023/03/28 11:07:59;;;;;;;;;;;8.90;72.50;;;-151.14;100.00;62537.16;5032380;28;19927;-88
2023/03/28 11:10:43;;;;;;;;;;;8.80;72.80;;;-151.14;100.00;62537.16;5016120;28;19921;-86
2023/03/28 11:13:23;;;;;;;;;;;8.80;72.70;;;-151.14;100.00;62537.16;5032361;28;20212;-86
2023/03/28 11:15:56;;;;;;;;;;;8.80;72.80;;;-151.14;100.00;62537.16;5016028;28;20117;-87
2023/03/28 11:18:47;;;;;;;;;;;8.80;72.10;;;-151.14;100.00;62537.16;5015640;28;19921;-86
2023/03/28 11:21:26;;;;;;;;;;;8.80;72.60;;;-151.14;100.00;62537.16;5016042;28;20128;-87
2023/03/28 11:23:59;;;;;;;;;;;8.80;73.10;;;-151.14;100.00;62537.16;5015697;28;19921;-86
2023/03/28 11:26:40;;;;;;;;;;;8.80;73.00;;;-151.14;100.00;62537.16;5032145;28;19921;-87
2023/03/28 11:29:32;;;;;;;;;;;8.80;72.80;;;-151.14;100.00;62537.16;4994043;28;19922;-87
2023/03/28 11:32:05;;;;;;;;;;;8.80;72.80;;;-151.14;100.00;62537.16;4976754;28;19928;-87
2023/03/28 11:34:35;;;;;;;;;;;8.80;73.00;;;-151.14;100.00;62537.16;4976634;28;19921;-87
2023/03/28 11:37:12;;;;;;;;;;;8.80;73.00;;;-151.14;100.00;62537.16;4976765;28;19928;-87
2023/03/28 11:39:43;;;;;;;;;;;8.80;73.00;;;-151.14;100.00;62537.16;4976464;28;19922;-87
2023/03/28 11:42:19;;;;;;;;;;;8.80;73.30;;;-151.14;100.00;62537.16;4976508;28;19922;-87
2023/03/28 11:44:51;;;;;;;;;;;8.80;73.20;;;-151.14;100.00;62537.16;4976405;28;19922;-87
2023/03/28 11:47:21;;;;;;;;;;;8.80;73.10;;;-151.14;100.00;62537.16;4976523;28;19944;-87
2023/03/28 11:49:58;;;;;;;;;;;8.80;71.50;;;-151.14;100.00;62537.16;4992614;28;19976;-87
2023/03/28 11:52:50;;;;;;;;;;;8.80;71.50;;;-151.14;100.00;62537.16;4992510;28;19922;-86
2023/03/28 11:55:20;;;;;;;;;;;8.80;71.40;;;-151.14;100.00;62537.16;4976311;28;19922;-86
2023/03/28 11:57:52;;;;;;;;;;;8.80;72.50;;;-151.14;100.00;62537.16;5008621;28;19928;-87
2023/03/28 12:00:22;;;;;;;;;;;8.80;74.10;;;-151.14;100.00;62537.16;4976434;28;20112;-87